Time;durP1;ratioP1;P1;durP2;ratioP2;P2;SDS_P1;SDS_P2;PMS_P1;PMS_P2;Temp;Humidity;BMP_temperature;BMP_pressure;BME280_temperature;BME280_humidity;BME280_pressure;Samples;Min_cycle;Max_cycle;Signal;HPM_P1;HPM_P2
2023/03/22 00:00:26;;;;;;;;;;;12.30;99.90;;;;;;5054072;28;19959;-70
2023/03/22 00:02:52;;;;;;;;;;;12.40;99.90;;;;;;5054511;28;19920;-70
2023/03/22 00:05:18;;;;;;;;;;;12.30;99.90;;;;;;5054154;28;19909;-70
2023/03/22 00:07:43;;;;;;;;;;;12.40;99.90;;;;;;5054150;28;20095;-70
2023/03/22 00:10:09;;;;;;;;;;;12.40;99.90;;;;;;5052991;28;19996;-73
2023/03/22 00:12:35;;;;;;;;;;;12.40;99.90;;;;;;5054188;28;19909;-69
2023/03/22 00:15:00;;;;;;;;;;;12.30;99.90;;;;;;5054363;28;20014;-71
2023/03/22 00:17:27;;;;;;;;;;;12.30;99.90;;;;;;5054036;28;19999;-70
2023/03/22 00:19:53;;;;;;;;;;;12.30;99.90;;;;;;5054279;28;20363;-70
2023/03/22 00:22:19;;;;;;;;;;;12.40;99.90;;;;;;5053936;28;19916;-70
2023/03/22 00:24:45;;;;;;;;;;;12.40;99.90;;;;;;5054591;28;19908;-71
2023/03/22 00:27:10;;;;;;;;;;;12.40;99.90;;;;;;5054485;28;19952;-70
2023/03/22 00:29:36;;;;;;;;;;;12.40;99.90;;;;;;5054294;28;20418;-70
2023/03/22 00:32:03;;;;;;;;;;;12.50;99.90;;;;;;5054740;28;19919;-70
2023/03/22 00:34:32;;;;;;;;;;;12.40;99.90;;;;;;5054515;28;19909;-71
2023/03/22 00:36:58;;;;;;;;;;;12.40;99.90;;;;;;5054122;28;19912;-72
2023/03/22 00:39:23;;;;;;;;;;;12.50;99.90;;;;;;5054266;28;19920;-70
2023/03/22 00:41:50;;;;;;;;;;;12.40;99.90;;;;;;5054345;28;19909;-70
2023/03/22 00:44:15;;;;;;;;;;;12.40;99.90;;;;;;5053207;28;20286;-71
2023/03/22 00:46:41;;;;;;;;;;;12.40;99.90;;;;;;5052358;28;19920;-71
2023/03/22 00:49:06;;;;;;;;;;;12.30;99.90;;;;;;5054085;28;19909;-70
2023/03/22 00:51:32;;;;;;;;;;;12.30;99.90;;;;;;5053418;28;19919;-69
2023/03/22 00:53:58;;;;;;;;;;;12.20;99.90;;;;;;5053629;28;20394;-71
2023/03/22 00:56:27;;;;;;;;;;;12.20;99.90;;;;;;5053656;28;20095;-71
2023/03/22 00:58:53;;;;;;;;;;;12.20;99.90;;;;;;5053663;28;19928;-71
2023/03/22 01:01:19;;;;;;;;;;;12.30;99.90;;;;;;5053283;28;19909;-70
2023/03/22 01:03:48;;;;;;;;;;;12.30;99.90;;;;;;5053806;28;20397;-71
2023/03/22 01:06:14;;;;;;;;;;;12.40;99.90;;;;;;5053223;28;19909;-71
2023/03/22 01:08:40;;;;;;;;;;;12.60;99.90;;;;;;5052955;28;19957;-70
2023/03/22 01:11:06;;;;;;;;;;;12.70;99.90;;;;;;5052744;28;19912;-70
2023/03/22 01:13:32;;;;;;;;;;;12.70;99.90;;;;;;5052905;28;19931;-70
2023/03/22 01:15:57;;;;;;;;;;;12.60;99.90;;;;;;5053642;28;20375;-70
2023/03/22 01:18:23;;;;;;;;;;;12.60;99.90;;;;;;5053686;28;19909;-70
2023/03/22 01:20:49;;;;;;;;;;;12.60;99.90;;;;;;5052032;28;19917;-70
2023/03/22 01:23:15;;;;;;;;;;;12.50;99.90;;;;;;5050477;28;20362;-71
2023/03/22 01:25:41;;;;;;;;;;;12.50;99.90;;;;;;5052290;28;19909;-71
2023/03/22 01:28:07;;;;;;;;;;;12.60;99.90;;;;;;5050941;28;19913;-70
2023/03/22 01:30:33;;;;;;;;;;;12.50;99.90;;;;;;5053058;28;19982;-71
2023/03/22 01:32:59;;;;;;;;;;;12.50;99.90;;;;;;5052932;28;20375;-71
2023/03/22 01:35:24;;;;;;;;;;;12.50;99.90;;;;;;5052044;28;19913;-70
2023/03/22 01:37:50;;;;;;;;;;;12.50;99.90;;;;;;5052557;28;19920;-70
2023/03/22 01:40:16;;;;;;;;;;;12.50;99.90;;;;;;5051866;28;19912;-69
2023/03/22 01:42:42;;;;;;;;;;;12.50;99.90;;;;;;5051818;28;19912;-71
2023/03/22 01:45:13;;;;;;;;;;;12.50;99.90;;;;;;5051926;28;19909;-70
2023/03/22 01:47:53;;;;;;;;;;;12.50;99.90;;;;;;5052015;28;20286;-70
2023/03/22 01:50:19;;;;;;;;;;;12.60;99.90;;;;;;5051523;28;19909;-70
2023/03/22 01:52:45;;;;;;;;;;;12.60;99.90;;;;;;5051641;28;19924;-71
2023/03/22 01:55:11;;;;;;;;;;;12.60;99.90;;;;;;5050225;28;19912;-71
2023/03/22 01:57:37;;;;;;;;;;;12.70;99.90;;;;;;5051533;28;19940;-70
2023/03/22 02:00:07;;;;;;;;;;;12.80;99.90;;;;;;5051495;28;20062;-70
2023/03/22 02:02:33;;;;;;;;;;;12.70;99.90;;;;;;5051403;28;19912;-70
2023/03/22 02:05:00;;;;;;;;;;;12.60;99.90;;;;;;5051336;28;20482;-70
2023/03/22 02:07:26;;;;;;;;;;;12.70;99.90;;;;;;5051556;28;19908;-70
2023/03/22 02:09:52;;;;;;;;;;;12.60;99.90;;;;;;5049805;28;19909;-70
2023/03/22 02:12:27;;;;;;;;;;;12.70;99.90;;;;;;5050891;28;20268;-70
2023/03/22 02:14:57;;;;;;;;;;;12.60;99.90;;;;;;5050774;28;20314;-71
2023/03/22 02:17:28;;;;;;;;;;;12.50;99.90;;;;;;5051184;28;19912;-71
2023/03/22 02:19:57;;;;;;;;;;;12.60;99.90;;;;;;5051321;28;19944;-71
2023/03/22 02:22:27;;;;;;;;;;;12.60;99.90;;;;;;5051222;28;20271;-71
2023/03/22 02:24:54;;;;;;;;;;;12.50;99.90;;;;;;5051003;28;19913;-70
2023/03/22 02:27:26;;;;;;;;;;;12.60;99.90;;;;;;5051553;28;19920;-71
2023/03/22 02:29:54;;;;;;;;;;;12.60;99.90;;;;;;5051082;28;20332;-71
2023/03/22 02:32:26;;;;;;;;;;;12.60;99.90;;;;;;5050669;28;19908;-70
2023/03/22 02:35:10;;;;;;;;;;;12.60;99.90;;;;;;5049400;28;19909;-70
2023/03/22 02:37:36;;;;;;;;;;;12.70;99.90;;;;;;5050733;28;19932;-71
2023/03/22 02:40:11;;;;;;;;;;;12.60;99.90;;;;;;5050651;28;20363;-71
2023/03/22 02:42:43;;;;;;;;;;;12.70;99.90;;;;;;5050526;28;19955;-71
2023/03/22 02:45:09;;;;;;;;;;;12.60;99.90;;;;;;5050618;28;19908;-70
2023/03/22 02:47:38;;;;;;;;;;;12.50;99.90;;;;;;5050759;28;20286;-70
2023/03/22 02:50:04;;;;;;;;;;;12.50;99.90;;;;;;5049310;28;19944;-71
2023/03/22 02:52:49;;;;;;;;;;;12.60;99.90;;;;;;5049007;28;19951;-70
2023/03/22 02:55:33;;;;;;;;;;;12.60;99.90;;;;;;5050498;28;19983;-70
2023/03/22 02:58:34;;;;;;;;;;;12.70;99.90;;;;;;5050552;28;19909;-71
2023/03/22 03:01:02;;;;;;;;;;;12.60;99.90;;;;;;5027464;28;19909;-70
2023/03/22 03:03:29;;;;;;;;;;;12.50;99.90;;;;;;5046016;28;20038;-70
2023/03/22 03:05:57;;;;;;;;;;;12.50;99.90;;;;;;5050152;28;19909;-71
2023/03/22 03:08:24;;;;;;;;;;;12.60;99.90;;;;;;5052435;28;20402;-71
2023/03/22 03:10:52;;;;;;;;;;;12.60;99.90;;;;;;5054185;28;19909;-70
2023/03/22 03:13:18;;;;;;;;;;;12.60;99.90;;;;;;5054456;28;19913;-71
2023/03/22 03:15:45;;;;;;;;;;;12.60;99.90;;;;;;5055690;28;19959;-71
2023/03/22 03:18:23;;;;;;;;;;;12.60;99.90;;;;;;5056672;28;19909;-70
2023/03/22 03:20:59;;;;;;;;;;;12.70;99.90;;;;;;5054548;28;19909;-71
2023/03/22 03:23:24;;;;;;;;;;;12.70;99.90;;;;;;5056029;28;19921;-70
2023/03/22 03:26:02;;;;;;;;;;;12.70;99.90;;;;;;5055874;28;20378;-70
2023/03/22 03:28:37;;;;;;;;;;;12.70;99.90;;;;;;5055697;28;19916;-71
2023/03/22 03:31:06;;;;;;;;;;;12.80;99.90;;;;;;5054558;28;19955;-70
2023/03/22 03:33:34;;;;;;;;;;;12.90;99.90;;;;;;5054482;28;19935;-71
2023/03/22 03:36:01;;;;;;;;;;;12.80;99.90;;;;;;5054356;28;20355;-71
2023/03/22 03:38:28;;;;;;;;;;;12.90;99.90;;;;;;5054928;28;19931;-69
2023/03/22 03:41:05;;;;;;;;;;;12.80;99.90;;;;;;5054517;28;19909;-73
2023/03/22 03:43:31;;;;;;;;;;;12.80;99.90;;;;;;5054670;28;19909;-71
2023/03/22 03:45:57;;;;;;;;;;;12.90;99.90;;;;;;5054754;28;19962;-71
2023/03/22 03:48:28;;;;;;;;;;;12.90;99.90;;;;;;5054488;28;20321;-70
2023/03/22 03:50:55;;;;;;;;;;;12.80;99.90;;;;;;5053847;28;20003;-71
2023/03/22 03:53:20;;;;;;;;;;;12.90;99.90;;;;;;5052878;28;19912;-71
2023/03/22 03:55:46;;;;;;;;;;;12.80;99.90;;;;;;5053839;28;20351;-70
2023/03/22 03:58:11;;;;;;;;;;;12.80;99.90;;;;;;5055003;28;19909;-70
2023/03/22 04:00:37;;;;;;;;;;;12.90;99.90;;;;;;5054591;28;19908;-70
2023/03/22 04:03:03;;;;;;;;;;;12.90;99.90;;;;;;5054124;28;19913;-70
2023/03/22 04:05:29;;;;;;;;;;;12.90;99.90;;;;;;5052678;28;19916;-71
2023/03/22 04:07:54;;;;;;;;;;;12.90;99.90;;;;;;5054276;28;20280;-71
2023/03/22 04:10:20;;;;;;;;;;;13.00;99.90;;;;;;5053930;28;19908;-71
2023/03/22 04:12:46;;;;;;;;;;;13.00;99.90;;;;;;5054246;28;19909;-70
2023/03/22 04:15:12;;;;;;;;;;;13.00;99.90;;;;;;5055210;28;19909;-71
2023/03/22 04:17:38;;;;;;;;;;;13.00;99.90;;;;;;5056268;28;19955;-70
2023/03/22 04:20:05;;;;;;;;;;;12.90;99.90;;;;;;5054909;28;20264;-71
2023/03/22 04:22:33;;;;;;;;;;;12.90;99.90;;;;;;5054843;28;19928;-69
2023/03/22 04:25:00;;;;;;;;;;;13.00;99.90;;;;;;5055711;28;19916;-71
2023/03/22 04:27:26;;;;;;;;;;;12.90;99.90;;;;;;5054845;28;19993;-70
2023/03/22 04:29:54;;;;;;;;;;;12.90;99.90;;;;;;5054434;28;21595;-71
2023/03/22 04:32:23;;;;;;;;;;;13.00;99.90;;;;;;5054268;28;19916;-71
2023/03/22 04:34:49;;;;;;;;;;;13.00;99.90;;;;;;5053926;28;19915;-71
2023/03/22 04:37:15;;;;;;;;;;;13.10;99.90;;;;;;5053511;28;20013;-71
2023/03/22 04:39:41;;;;;;;;;;;13.00;99.90;;;;;;5053036;28;19974;-71
2023/03/22 04:42:07;;;;;;;;;;;13.10;99.90;;;;;;5052607;28;20174;-71
2023/03/22 04:44:32;;;;;;;;;;;13.10;99.90;;;;;;5051462;28;19913;-71
2023/03/22 04:46:58;;;;;;;;;;;13.10;99.90;;;;;;5053163;28;19909;-71
2023/03/22 04:49:25;;;;;;;;;;;13.10;99.90;;;;;;5053440;28;19924;-70
2023/03/22 04:51:54;;;;;;;;;;;13.00;99.90;;;;;;5053479;28;19908;-71
2023/03/22 04:54:20;;;;;;;;;;;13.00;99.90;;;;;;5054112;28;19909;-71
2023/03/22 04:56:46;;;;;;;;;;;12.90;99.90;;;;;;5053969;28;19929;-70
2023/03/22 04:59:12;;;;;;;;;;;12.90;99.90;;;;;;5053428;28;20104;-70
2023/03/22 05:01:39;;;;;;;;;;;13.00;99.90;;;;;;5053263;28;19908;-71
2023/03/22 05:04:05;;;;;;;;;;;13.00;99.90;;;;;;5052487;28;19915;-71
2023/03/22 05:06:32;;;;;;;;;;;13.00;99.90;;;;;;5053473;28;19909;-71
2023/03/22 05:08:58;;;;;;;;;;;13.00;99.90;;;;;;5053699;28;20008;-70
2023/03/22 05:11:26;;;;;;;;;;;13.00;99.90;;;;;;5053155;28;19909;-71
2023/03/22 05:13:55;;;;;;;;;;;13.10;99.90;;;;;;5053349;28;19909;-71
2023/03/22 05:16:21;;;;;;;;;;;13.10;99.90;;;;;;5053810;28;19917;-70
2023/03/22 05:18:47;;;;;;;;;;;13.00;99.90;;;;;;5052119;28;19909;-71
2023/03/22 05:21:14;;;;;;;;;;;13.10;99.90;;;;;;5053296;28;19916;-71
2023/03/22 05:23:44;;;;;;;;;;;13.10;99.90;;;;;;5053191;28;19999;-71
2023/03/22 05:26:14;;;;;;;;;;;13.10;99.90;;;;;;5052993;28;19916;-70
2023/03/22 05:28:43;;;;;;;;;;;13.10;99.90;;;;;;5052866;28;20007;-71
2023/03/22 05:31:10;;;;;;;;;;;13.10;99.90;;;;;;5051666;28;19908;-71
2023/03/22 05:33:36;;;;;;;;;;;13.10;99.90;;;;;;5052322;28;20436;-71
2023/03/22 05:36:02;;;;;;;;;;;13.10;99.90;;;;;;5052949;28;19913;-71
2023/03/22 05:38:27;;;;;;;;;;;13.10;99.90;;;;;;5052715;28;20366;-71
2023/03/22 05:40:53;;;;;;;;;;;13.10;99.90;;;;;;5053817;28;20351;-71
2023/03/22 05:43:19;;;;;;;;;;;13.10;99.90;;;;;;5053588;28;20007;-71
2023/03/22 05:45:45;;;;;;;;;;;13.10;99.90;;;;;;5053356;28;19909;-71
2023/03/22 05:48:11;;;;;;;;;;;13.10;99.90;;;;;;5053245;28;19915;-71
2023/03/22 05:50:36;;;;;;;;;;;13.10;99.90;;;;;;5052780;28;19915;-70
2023/03/22 05:53:03;;;;;;;;;;;13.20;99.90;;;;;;5051795;28;19913;-70
2023/03/22 05:55:30;;;;;;;;;;;13.30;99.90;;;;;;5053511;28;20339;-70
2023/03/22 05:57:57;;;;;;;;;;;13.20;99.90;;;;;;5051881;28;19909;-71
2023/03/22 06:00:23;;;;;;;;;;;13.20;99.90;;;;;;5052220;28;19912;-71
2023/03/22 06:02:51;;;;;;;;;;;13.20;99.90;;;;;;5051521;28;19909;-71
2023/03/22 06:05:17;;;;;;;;;;;13.20;99.90;;;;;;5052910;28;19915;-72
2023/03/22 06:07:43;;;;;;;;;;;13.30;99.90;;;;;;5051462;28;19913;-72
2023/03/22 06:10:12;;;;;;;;;;;13.40;99.90;;;;;;5052278;28;19916;-72
2023/03/22 06:12:38;;;;;;;;;;;13.30;99.90;;;;;;5052107;28;19962;-71
2023/03/22 06:15:04;;;;;;;;;;;13.30;99.90;;;;;;5052508;28;19964;-71
2023/03/22 06:17:30;;;;;;;;;;;13.30;99.90;;;;;;5053168;28;19916;-71
2023/03/22 06:19:56;;;;;;;;;;;13.40;99.90;;;;;;5053237;28;19909;-71
2023/03/22 06:22:25;;;;;;;;;;;13.50;99.90;;;;;;5052006;28;20345;-72
2023/03/22 06:24:52;;;;;;;;;;;13.50;99.90;;;;;;5049919;28;20004;-71
2023/03/22 06:27:21;;;;;;;;;;;13.50;99.90;;;;;;5050030;28;19959;-71
2023/03/22 06:29:49;;;;;;;;;;;13.50;99.90;;;;;;5050366;28;20371;-71
2023/03/22 06:32:15;;;;;;;;;;;13.50;99.90;;;;;;5051636;28;20007;-71
2023/03/22 06:34:41;;;;;;;;;;;13.60;99.90;;;;;;5051891;28;19952;-71
2023/03/22 06:37:07;;;;;;;;;;;13.60;99.90;;;;;;5050622;28;19913;-72
2023/03/22 06:39:33;;;;;;;;;;;13.60;99.90;;;;;;5051834;28;20341;-71
2023/03/22 06:41:58;;;;;;;;;;;13.70;99.90;;;;;;5051499;28;19908;-71
2023/03/22 06:44:24;;;;;;;;;;;13.70;99.90;;;;;;5051587;28;20349;-72
2023/03/22 06:46:50;;;;;;;;;;;13.80;99.90;;;;;;5051667;28;19913;-71
2023/03/22 06:49:20;;;;;;;;;;;13.80;99.90;;;;;;5051767;28;20167;-71
2023/03/22 06:51:47;;;;;;;;;;;13.80;99.90;;;;;;5049929;28;20384;-71
2023/03/22 06:54:14;;;;;;;;;;;13.90;99.90;;;;;;5051922;28;19932;-72
2023/03/22 06:56:40;;;;;;;;;;;13.90;99.90;;;;;;5052103;28;20294;-71
2023/03/22 06:59:06;;;;;;;;;;;13.90;99.90;;;;;;5051999;28;19999;-71
2023/03/22 07:01:31;;;;;;;;;;;14.00;99.90;;;;;;5051562;28;20437;-72
2023/03/22 07:03:57;;;;;;;;;;;14.00;99.90;;;;;;5052008;28;19915;-72
2023/03/22 07:06:23;;;;;;;;;;;14.20;99.90;;;;;;5051194;28;19913;-72
2023/03/22 07:08:48;;;;;;;;;;;14.20;99.90;;;;;;5051572;28;19909;-71
2023/03/22 07:11:14;;;;;;;;;;;14.20;99.90;;;;;;5051775;28;20235;-71
2023/03/22 07:13:40;;;;;;;;;;;14.40;99.90;;;;;;5051725;28;20442;-72
2023/03/22 07:16:06;;;;;;;;;;;14.40;99.90;;;;;;5050439;28;20421;-72
2023/03/22 07:18:31;;;;;;;;;;;14.50;99.90;;;;;;5051847;28;19931;-71
2023/03/22 07:20:57;;;;;;;;;;;14.60;99.90;;;;;;5050690;28;20037;-71
2023/03/22 07:23:23;;;;;;;;;;;14.60;99.90;;;;;;5051637;28;19971;-71
2023/03/22 07:25:48;;;;;;;;;;;14.60;99.90;;;;;;5051785;28;20296;-71
2023/03/22 07:28:15;;;;;;;;;;;14.60;99.90;;;;;;5053068;28;20058;-72
2023/03/22 07:30:40;;;;;;;;;;;14.60;99.90;;;;;;5051121;28;19916;-72
2023/03/22 07:33:07;;;;;;;;;;;14.70;99.90;;;;;;5052110;28;19909;-73
2023/03/22 07:35:33;;;;;;;;;;;14.80;99.90;;;;;;5051452;28;20298;-72
2023/03/22 07:37:59;;;;;;;;;;;14.80;99.90;;;;;;5051825;28;19909;-72
2023/03/22 07:40:26;;;;;;;;;;;14.80;99.90;;;;;;5051469;28;19935;-72
2023/03/22 07:42:51;;;;;;;;;;;14.80;99.90;;;;;;5051298;28;20393;-72
2023/03/22 07:45:17;;;;;;;;;;;14.80;99.90;;;;;;5052243;28;19999;-72
2023/03/22 07:47:43;;;;;;;;;;;14.80;99.90;;;;;;5050905;28;19917;-72
2023/03/22 07:50:12;;;;;;;;;;;14.80;99.90;;;;;;5050402;28;19908;-72
2023/03/22 07:52:40;;;;;;;;;;;14.80;99.90;;;;;;5050205;28;19909;-71
2023/03/22 07:55:06;;;;;;;;;;;14.80;99.90;;;;;;5053375;28;19947;-71
2023/03/22 07:57:34;;;;;;;;;;;14.80;99.90;;;;;;5054786;28;19916;-71
2023/03/22 08:00:00;;;;;;;;;;;14.90;99.90;;;;;;5053318;28;19916;-72
2023/03/22 08:02:27;;;;;;;;;;;14.90;99.90;;;;;;5054687;28;19909;-72
2023/03/22 08:04:57;;;;;;;;;;;15.00;99.90;;;;;;5052409;28;20061;-71
2023/03/22 08:07:24;;;;;;;;;;;15.10;99.90;;;;;;5053073;28;19916;-71
2023/03/22 08:09:51;;;;;;;;;;;15.10;99.90;;;;;;5052840;28;20467;-72
2023/03/22 08:12:17;;;;;;;;;;;15.20;99.90;;;;;;5052491;28;19935;-71
2023/03/22 08:14:46;;;;;;;;;;;15.30;99.90;;;;;;5053877;28;19995;-71
2023/03/22 08:17:12;;;;;;;;;;;15.30;99.90;;;;;;5054204;28;20313;-72
2023/03/22 08:19:38;;;;;;;;;;;15.40;99.90;;;;;;5055404;28;20011;-72
2023/03/22 08:22:05;;;;;;;;;;;15.40;99.90;;;;;;5055441;28;19955;-72
2023/03/22 08:24:31;;;;;;;;;;;15.50;99.90;;;;;;5055376;28;19917;-72
2023/03/22 08:26:56;;;;;;;;;;;15.40;99.90;;;;;;5055505;28;20007;-72
2023/03/22 08:29:22;;;;;;;;;;;15.40;99.90;;;;;;5055715;28;19972;-72
2023/03/22 08:31:48;;;;;;;;;;;15.40;99.90;;;;;;5055196;28;19909;-72
2023/03/22 08:34:14;;;;;;;;;;;15.50;99.90;;;;;;5055278;28;19912;-72
2023/03/22 08:36:39;;;;;;;;;;;15.50;99.90;;;;;;5055094;28;19963;-72
2023/03/22 08:39:05;;;;;;;;;;;15.60;99.90;;;;;;5054750;28;19908;-71
2023/03/22 08:41:30;;;;;;;;;;;15.70;99.90;;;;;;5054361;28;20029;-72
2023/03/22 08:43:56;;;;;;;;;;;15.70;99.90;;;;;;5054602;28;19970;-72
2023/03/22 08:46:22;;;;;;;;;;;15.80;99.90;;;;;;5054389;28;19923;-72
2023/03/22 08:48:49;;;;;;;;;;;15.80;99.90;;;;;;5054188;28;20402;-72
2023/03/22 08:51:18;;;;;;;;;;;15.80;99.90;;;;;;5053209;28;20417;-72
2023/03/22 08:53:45;;;;;;;;;;;15.90;99.90;;;;;;5053187;28;19916;-71
2023/03/22 08:56:11;;;;;;;;;;;15.90;99.90;;;;;;5053208;28;20275;-72
2023/03/22 08:58:37;;;;;;;;;;;15.90;99.90;;;;;;5053288;28;19937;-72
2023/03/22 09:01:03;;;;;;;;;;;15.90;99.90;;;;;;5052903;28;20365;-72
2023/03/22 09:03:28;;;;;;;;;;;16.00;99.90;;;;;;5053699;28;20046;-72
2023/03/22 09:05:54;;;;;;;;;;;16.00;99.90;;;;;;5052630;28;19915;-72
2023/03/22 09:08:20;;;;;;;;;;;16.10;99.90;;;;;;5054018;28;19909;-72
2023/03/22 09:10:51;;;;;;;;;;;16.20;99.90;;;;;;5053351;28;20338;-72
2023/03/22 09:13:17;;;;;;;;;;;16.20;99.90;;;;;;5053423;28;19913;-72
2023/03/22 09:15:43;;;;;;;;;;;16.30;99.90;;;;;;5053341;28;19982;-71
2023/03/22 09:18:10;;;;;;;;;;;16.30;99.90;;;;;;5053623;28;20350;-72
2023/03/22 09:20:36;;;;;;;;;;;16.40;99.90;;;;;;5052933;28;20383;-71
2023/03/22 09:23:01;;;;;;;;;;;16.40;99.90;;;;;;5053140;28;19916;-71
2023/03/22 09:25:27;;;;;;;;;;;16.40;99.90;;;;;;5054082;28;19909;-72
2023/03/22 09:27:52;;;;;;;;;;;16.40;99.90;;;;;;5053873;28;19912;-72
2023/03/22 09:30:18;;;;;;;;;;;16.40;99.90;;;;;;5052832;28;19908;-72
2023/03/22 09:32:44;;;;;;;;;;;16.40;99.90;;;;;;5052743;28;19916;-71
2023/03/22 09:35:09;;;;;;;;;;;16.40;99.90;;;;;;5052334;28;19908;-72
2023/03/22 09:37:35;;;;;;;;;;;16.30;99.90;;;;;;5052565;28;19919;-72
2023/03/22 09:40:01;;;;;;;;;;;16.30;99.90;;;;;;5052741;28;19942;-72
2023/03/22 09:42:26;;;;;;;;;;;16.20;99.90;;;;;;5052198;28;19920;-71
2023/03/22 09:44:53;;;;;;;;;;;16.20;99.90;;;;;;5052250;28;19917;-71
2023/03/22 09:47:24;;;;;;;;;;;16.00;99.90;;;;;;5052645;28;19913;-71
2023/03/22 09:49:52;;;;;;;;;;;15.90;99.90;;;;;;5052620;28;19909;-71
2023/03/22 09:52:18;;;;;;;;;;;16.00;99.90;;;;;;5052034;28;19913;-72
2023/03/22 09:54:45;;;;;;;;;;;15.90;99.90;;;;;;5051930;28;20283;-72
2023/03/22 09:57:16;;;;;;;;;;;15.80;99.90;;;;;;5052357;28;19913;-72
2023/03/22 10:00:04;;;;;;;;;;;15.80;99.90;;;;;;5052410;28;19995;-71
2023/03/22 10:02:36;;;;;;;;;;;15.70;99.90;;;;;;5049490;28;19908;-71
2023/03/22 10:05:12;;;;;;;;;;;15.70;99.90;;;;;;5050925;28;20331;-72
2023/03/22 10:07:51;;;;;;;;;;;15.70;99.90;;;;;;5051290;28;19999;-72
2023/03/22 10:10:21;;;;;;;;;;;15.70;99.90;;;;;;5051242;28;19954;-72
2023/03/22 10:12:49;;;;;;;;;;;15.80;99.90;;;;;;5050906;28;19913;-72
2023/03/22 10:15:18;;;;;;;;;;;15.80;99.90;;;;;;5050799;28;19959;-72
2023/03/22 10:17:51;;;;;;;;;;;15.80;99.90;;;;;;5049641;28;19909;-71
2023/03/22 10:20:16;;;;;;;;;;;15.80;99.90;;;;;;5051048;28;19909;-72
2023/03/22 10:22:44;;;;;;;;;;;15.80;99.90;;;;;;5049302;28;19928;-72
2023/03/22 10:25:14;;;;;;;;;;;15.80;99.90;;;;;;5051118;28;19916;-72
2023/03/22 10:27:40;;;;;;;;;;;15.80;99.90;;;;;;5051177;28;20505;-71
2023/03/22 10:30:08;;;;;;;;;;;15.90;99.90;;;;;;5050935;28;19955;-71
2023/03/22 10:32:44;;;;;;;;;;;15.90;99.90;;;;;;5049799;28;20388;-71
2023/03/22 10:35:13;;;;;;;;;;;15.90;99.90;;;;;;5050710;28;19916;-71
2023/03/22 10:37:40;;;;;;;;;;;15.90;99.90;;;;;;5050923;28;19909;-72
2023/03/22 10:40:07;;;;;;;;;;;16.00;99.90;;;;;;5051457;28;19913;-72
2023/03/22 10:42:35;;;;;;;;;;;15.80;99.90;;;;;;5051689;28;19909;-71
2023/03/22 10:45:08;;;;;;;;;;;15.80;99.90;;;;;;5051393;28;19915;-72
2023/03/22 10:47:40;;;;;;;;;;;15.80;99.90;;;;;;5051900;28;19915;-72
2023/03/22 10:50:14;;;;;;;;;;;15.80;99.90;;;;;;5051235;28;19999;-71
2023/03/22 10:52:49;;;;;;;;;;;15.80;99.90;;;;;;5051199;28;19909;-72
2023/03/22 10:55:15;;;;;;;;;;;15.80;99.90;;;;;;5051474;28;19909;-71
2023/03/22 10:57:45;;;;;;;;;;;15.80;99.90;;;;;;5049728;28;19909;-71
2023/03/22 11:00:14;;;;;;;;;;;15.80;99.90;;;;;;5049877;28;19912;-71
2023/03/22 11:02:47;;;;;;;;;;;15.80;99.90;;;;;;5051503;28;19909;-71
2023/03/22 11:05:21;;;;;;;;;;;15.90;99.90;;;;;;5052117;28;19931;-72
2023/03/22 11:07:47;;;;;;;;;;;16.00;99.90;;;;;;5051317;28;19913;-71
2023/03/22 11:10:26;;;;;;;;;;;15.90;99.90;;;;;;5052948;28;19912;-72
2023/03/22 11:13:07;;;;;;;;;;;15.90;99.90;;;;;;5052765;28;20294;-71
2023/03/22 11:15:34;;;;;;;;;;;15.90;99.90;;;;;;5052534;28;20424;-72
2023/03/22 11:18:03;;;;;;;;;;;16.00;99.90;;;;;;5051204;28;19913;-71
2023/03/22 11:20:29;;;;;;;;;;;16.00;99.90;;;;;;5052859;28;19908;-71
2023/03/22 11:22:58;;;;;;;;;;;16.00;99.90;;;;;;5052353;28;19917;-72
2023/03/22 11:25:26;;;;;;;;;;;16.10;99.90;;;;;;5052508;28;20022;-72
2023/03/22 11:28:12;;;;;;;;;;;16.20;99.90;;;;;;5052713;28;19920;-72
2023/03/22 11:30:37;;;;;;;;;;;16.20;99.90;;;;;;5043431;28;19908;-72
2023/03/22 11:33:12;;;;;;;;;;;16.20;99.90;;;;;;5056374;28;19920;-72
2023/03/22 11:35:38;;;;;;;;;;;16.20;99.90;;;;;;5056311;28;19928;-72
2023/03/22 11:38:04;;;;;;;;;;;16.20;99.90;;;;;;5056411;28;20097;-72
2023/03/22 11:40:34;;;;;;;;;;;16.30;99.90;;;;;;5056419;28;19909;-73
2023/03/22 11:43:09;;;;;;;;;;;16.30;99.90;;;;;;5056844;28;19909;-72
2023/03/22 11:45:36;;;;;;;;;;;16.20;99.90;;;;;;5054801;28;19909;-71
2023/03/22 11:48:07;;;;;;;;;;;16.20;99.90;;;;;;5056065;28;19909;-72
2023/03/22 11:50:34;;;;;;;;;;;16.40;99.90;;;;;;5055825;28;19912;-72
2023/03/22 11:53:05;;;;;;;;;;;16.40;99.90;;;;;;5056014;28;20298;-72
2023/03/22 11:55:33;;;;;;;;;;;16.50;99.90;;;;;;5055926;28;19912;-72
2023/03/22 11:58:02;;;;;;;;;;;16.50;99.90;;;;;;5056653;28;19962;-72
2023/03/22 12:00:33;;;;;;;;;;;16.50;99.90;;;;;;5056249;28;19931;-71
2023/03/22 12:03:00;;;;;;;;;;;16.50;99.90;;;;;;5054438;28;20021;-71
2023/03/22 12:05:27;;;;;;;;;;;16.50;99.90;;;;;;5053840;28;20243;-72
2023/03/22 12:07:59;;;;;;;;;;;16.50;99.90;;;;;;5055600;28;19936;-72
2023/03/22 12:10:27;;;;;;;;;;;16.50;99.90;;;;;;5054844;28;19909;-72
2023/03/22 12:12:56;;;;;;;;;;;16.50;99.90;;;;;;5055424;28;20003;-72
2023/03/22 12:15:25;;;;;;;;;;;16.50;99.90;;;;;;5054951;28;19908;-72
2023/03/22 12:18:04;;;;;;;;;;;16.50;99.90;;;;;;5055039;28;19916;-72
2023/03/22 12:20:37;;;;;;;;;;;16.50;99.90;;;;;;5053711;28;19913;-71
2023/03/22 12:23:08;;;;;;;;;;;16.50;99.90;;;;;;5053382;28;19948;-72
2023/03/22 12:25:34;;;;;;;;;;;16.50;99.90;;;;;;5053472;28;19920;-72
2023/03/22 12:28:06;;;;;;;;;;;16.50;99.90;;;;;;5053385;28;19961;-72
2023/03/22 12:30:43;;;;;;;;;;;16.60;99.90;;;;;;5053043;28;19952;-72
2023/03/22 12:33:15;;;;;;;;;;;16.50;99.90;;;;;;5053198;28;19927;-72
2023/03/22 12:35:42;;;;;;;;;;;16.50;99.90;;;;;;5052448;28;20063;-72
2023/03/22 12:38:14;;;;;;;;;;;16.50;99.90;;;;;;5054680;28;20426;-72
2023/03/22 12:40:41;;;;;;;;;;;16.50;99.90;;;;;;5051753;28;20294;-71
2023/03/22 12:43:07;;;;;;;;;;;16.60;99.90;;;;;;5053849;28;20155;-71
2023/03/22 12:45:36;;;;;;;;;;;16.60;99.90;;;;;;5055064;28;19912;-71
2023/03/22 12:48:02;;;;;;;;;;;16.60;99.90;;;;;;5054793;28;20003;-73
2023/03/22 12:50:40;;;;;;;;;;;16.60;99.90;;;;;;5054340;28;19955;-72
2023/03/22 12:53:09;;;;;;;;;;;16.70;99.90;;;;;;5055182;28;19908;-71
2023/03/22 12:55:36;;;;;;;;;;;16.70;99.90;;;;;;5054755;28;19970;-71
2023/03/22 12:58:06;;;;;;;;;;;16.70;99.90;;;;;;5054135;28;19908;-72
2023/03/22 13:00:41;;;;;;;;;;;16.70;99.90;;;;;;5053397;28;19920;-72
2023/03/22 13:03:18;;;;;;;;;;;16.70;99.90;;;;;;5054153;28;19909;-72
2023/03/22 13:05:45;;;;;;;;;;;16.70;99.90;;;;;;5053900;28;20033;-72
2023/03/22 13:08:11;;;;;;;;;;;16.70;99.90;;;;;;5054408;28;19941;-73
2023/03/22 13:10:40;;;;;;;;;;;16.80;99.90;;;;;;5054151;28;19963;-72
2023/03/22 13:13:21;;;;;;;;;;;16.80;99.90;;;;;;5054200;28;19909;-72
2023/03/22 13:15:56;;;;;;;;;;;16.90;99.90;;;;;;5053040;28;19913;-72
2023/03/22 13:18:28;;;;;;;;;;;16.90;99.90;;;;;;5055039;28;19909;-72
2023/03/22 13:21:08;;;;;;;;;;;16.80;99.90;;;;;;5054930;28;19962;-72
2023/03/22 13:23:33;;;;;;;;;;;16.80;99.90;;;;;;5053646;28;19920;-72
2023/03/22 13:26:01;;;;;;;;;;;16.80;99.90;;;;;;5054589;28;19916;-72
2023/03/22 13:28:28;;;;;;;;;;;16.70;99.90;;;;;;5054307;28;19962;-72
2023/03/22 13:30:55;;;;;;;;;;;16.80;99.90;;;;;;5053748;28;19916;-72
2023/03/22 13:33:28;;;;;;;;;;;16.80;99.90;;;;;;5053834;28;19935;-72
2023/03/22 13:35:58;;;;;;;;;;;16.80;99.90;;;;;;5052740;28;19913;-72
2023/03/22 13:38:40;;;;;;;;;;;16.80;99.90;;;;;;5054893;28;19909;-72
2023/03/22 13:41:24;;;;;;;;;;;16.80;99.90;;;;;;5053902;28;19909;-72
2023/03/22 13:43:51;;;;;;;;;;;16.80;99.90;;;;;;5053695;28;19929;-72
2023/03/22 13:46:18;;;;;;;;;;;16.80;99.90;;;;;;5052981;28;19909;-72
2023/03/22 13:48:47;;;;;;;;;;;16.90;99.90;;;;;;5054357;28;19909;-72
2023/03/22 13:51:12;;;;;;;;;;;16.90;99.90;;;;;;5053263;28;19970;-71
2023/03/22 13:53:40;;;;;;;;;;;16.90;99.90;;;;;;5053554;28;19913;-72
2023/03/22 13:56:06;;;;;;;;;;;16.90;99.90;;;;;;5053944;28;19912;-72
2023/03/22 13:58:37;;;;;;;;;;;16.90;99.90;;;;;;5054420;28;20274;-72
2023/03/22 14:01:05;;;;;;;;;;;16.90;99.90;;;;;;5053766;28;19955;-72
2023/03/22 14:03:33;;;;;;;;;;;16.90;99.90;;;;;;5053529;28;19954;-72
2023/03/22 14:06:04;;;;;;;;;;;17.00;99.90;;;;;;5053458;28;19909;-72
2023/03/22 14:08:31;;;;;;;;;;;17.00;99.90;;;;;;5053817;28;19909;-72
2023/03/22 14:11:01;;;;;;;;;;;17.10;99.90;;;;;;5053559;28;19908;-72
2023/03/22 14:13:42;;;;;;;;;;;17.10;99.90;;;;;;5053550;28;19963;-72
2023/03/22 14:16:18;;;;;;;;;;;17.10;99.90;;;;;;5053628;28;19913;-72
2023/03/22 14:18:46;;;;;;;;;;;17.20;99.90;;;;;;5053502;28;19909;-72
2023/03/22 14:21:14;;;;;;;;;;;17.20;99.90;;;;;;5053186;28;20007;-72